createdAt,value
2022-09-12T00:01:51.573Z,92.75
2022-09-12T00:04:18.400Z,92.65
2022-09-12T00:06:45.329Z,92.57
2022-09-12T00:09:13.870Z,91.82
2022-09-12T00:11:42.964Z,92.32
2022-09-12T00:14:12.177Z,92.47
2022-09-12T00:16:39.561Z,92.80
2022-09-12T00:19:07.233Z,92.97
2022-09-12T00:21:35.738Z,92.67
2022-09-12T00:24:02.931Z,92.35
2022-09-12T00:26:29.776Z,92.68
2022-09-12T00:28:56.549Z,93.21
2022-09-12T00:31:25.358Z,92.50
2022-09-12T00:33:53.654Z,92.81
2022-09-12T00:36:22.992Z,92.88
2022-09-12T00:38:50.841Z,93.30
2022-09-12T00:41:21.279Z,93.82
2022-09-12T00:44:23.379Z,92.55
2022-09-12T00:47:13.804Z,92.52
2022-09-12T00:49:51.698Z,93.24
2022-09-12T00:52:21.255Z,93.31
2022-09-12T00:54:53.356Z,93.76
2022-09-12T00:57:22.523Z,93.68
2022-09-12T00:59:58.064Z,93.23
2022-09-12T01:02:24.908Z,93.42
2022-09-12T01:04:52.335Z,93.16
2022-09-12T01:07:19.865Z,93.39
2022-09-12T01:09:46.818Z,94.01
2022-09-12T01:12:15.062Z,93.93
2022-09-12T01:14:42.205Z,94.03
2022-09-12T01:17:13.225Z,93.50
2022-09-12T01:19:58.624Z,92.77
2022-09-12T01:22:46.500Z,93.72
2022-09-12T01:25:38.960Z,93.40
2022-09-12T01:28:29.455Z,93.84
2022-09-12T01:31:13.957Z,93.43
2022-09-12T01:33:46.638Z,93.49
2022-09-12T01:36:38.209Z,93.21
2022-09-12T01:39:09.760Z,93.20
2022-09-12T01:41:50.194Z,93.16
2022-09-12T01:44:29.234Z,93.20
2022-09-12T01:47:24.114Z,92.72
2022-09-12T01:50:13.645Z,92.88
2022-09-12T01:52:49.611Z,92.56
2022-09-12T01:55:20.118Z,92.95
2022-09-12T01:57:54.994Z,93.19
2022-09-12T02:00:21.940Z,93.46
2022-09-12T02:03:15.251Z,93.32
2022-09-12T02:05:50.254Z,93.36
2022-09-12T02:08:32.038Z,93.31
2022-09-12T02:11:06.362Z,93.34
2022-09-12T02:13:48.276Z,93.02
2022-09-12T02:16:19.235Z,93.33
2022-09-12T02:18:47.110Z,93.11
2022-09-12T02:21:14.096Z,93.57
2022-09-12T02:23:44.030Z,93.82
2022-09-12T02:26:17.319Z,93.15
2022-09-12T02:28:44.227Z,92.98
2022-09-12T02:31:23.991Z,93.56
2022-09-12T02:34:10.840Z,93.51
2022-09-12T02:36:55.049Z,93.36
2022-09-12T02:39:21.843Z,93.96
2022-09-12T02:41:51.339Z,93.12
2022-09-12T02:44:18.454Z,93.56
2022-09-12T02:46:49.016Z,92.76
2022-09-12T02:49:16.386Z,92.94
2022-09-12T02:51:43.159Z,93.56
2022-09-12T02:54:10.685Z,93.08
2022-09-12T02:56:42.447Z,93.71
2022-09-12T02:59:11.802Z,94.04
2022-09-12T03:01:47.387Z,93.12
2022-09-12T03:04:46.826Z,93.69
2022-09-12T03:07:37.668Z,93.50
2022-09-12T03:10:10.397Z,93.92
2022-09-12T03:12:52.237Z,92.91
2022-09-12T03:15:32.139Z,92.79
2022-09-12T03:18:27.167Z,92.98
2022-09-12T03:20:57.657Z,93.19
2022-09-12T03:23:29.174Z,93.22
2022-09-12T03:26:13.061Z,92.34
2022-09-12T03:28:39.973Z,93.43
2022-09-12T03:31:15.315Z,93.81
2022-09-12T03:33:42.357Z,93.16
2022-09-12T03:36:21.580Z,93.60
2022-09-12T03:38:48.438Z,93.68
2022-09-12T03:41:15.288Z,93.45
2022-09-12T03:43:42.108Z,93.58
2022-09-12T03:46:08.861Z,93.61
2022-09-12T03:48:35.975Z,93.42
2022-09-12T03:51:05.387Z,94.45
2022-09-12T03:53:32.555Z,93.53
2022-09-12T03:55:59.425Z,93.84
2022-09-12T03:58:30.573Z,93.06
2022-09-12T04:00:57.497Z,93.72
2022-09-12T04:03:24.241Z,93.40
2022-09-12T04:05:51.012Z,94.65
2022-09-12T04:08:17.758Z,94.29
2022-09-12T04:10:44.582Z,94.16
2022-09-12T04:13:11.300Z,93.78
2022-09-12T04:15:38.126Z,93.77
2022-09-12T04:18:06.099Z,94.12
2022-09-12T04:20:33.404Z,93.22
2022-09-12T04:23:00.061Z,93.27
2022-09-12T04:25:27.230Z,92.76
2022-09-12T04:27:53.932Z,93.35
2022-09-12T04:30:20.702Z,92.88
2022-09-12T04:32:47.441Z,93.24
2022-09-12T04:35:14.297Z,93.63
2022-09-12T04:37:41.050Z,93.81
2022-09-12T04:40:08.496Z,94.20
2022-09-12T04:42:35.251Z,93.96
2022-09-12T04:45:02.022Z,93.76
2022-09-12T04:47:28.739Z,94.67
2022-09-12T04:49:55.511Z,93.75
2022-09-12T04:52:22.264Z,93.09
2022-09-12T04:54:48.981Z,93.55
2022-09-12T04:57:15.862Z,92.36
2022-09-12T04:59:42.692Z,92.37
2022-09-12T05:02:09.464Z,93.02
2022-09-12T05:04:36.307Z,92.17
2022-09-12T05:07:04.316Z,92.21
2022-09-12T05:09:31.171Z,92.48
2022-09-12T05:12:04.226Z,92.83
2022-09-12T05:14:33.187Z,92.87
2022-09-12T05:17:01.672Z,92.36
2022-09-12T05:19:30.512Z,92.71
2022-09-12T05:21:57.300Z,92.16
2022-09-12T05:24:24.725Z,92.85
2022-09-12T05:26:51.879Z,93.00
2022-09-12T05:29:19.061Z,92.98
2022-09-12T05:31:45.931Z,93.55
2022-09-12T05:34:12.751Z,93.30
2022-09-12T05:36:39.486Z,93.47
2022-09-12T05:39:06.379Z,93.72
2022-09-12T05:41:34.192Z,94.10
2022-09-12T05:44:03.949Z,93.54
2022-09-12T05:46:40.040Z,93.23
2022-09-12T05:49:09.019Z,94.03
2022-09-12T05:51:40.937Z,93.02
2022-09-12T05:54:09.678Z,93.27
2022-09-12T05:56:43.411Z,91.78
2022-09-12T05:59:16.137Z,91.35
2022-09-12T06:01:43.050Z,91.38
2022-09-12T06:04:09.930Z,91.95
2022-09-12T06:06:41.883Z,91.36
2022-09-12T06:09:09.230Z,91.80
2022-09-12T06:11:37.415Z,92.28
2022-09-12T06:14:04.799Z,92.59
2022-09-12T06:16:33.277Z,91.57
2022-09-12T06:19:02.800Z,90.94
2022-09-12T06:21:34.542Z,91.03
2022-09-12T06:24:02.035Z,91.10
2022-09-12T06:26:29.319Z,90.78
2022-09-12T06:28:57.393Z,91.49
2022-09-12T06:31:30.712Z,91.69
2022-09-12T06:34:01.081Z,91.08
2022-09-12T06:36:36.509Z,90.77
2022-09-12T06:39:08.233Z,91.58
2022-09-12T06:41:35.042Z,92.09
2022-09-12T06:44:02.253Z,92.47
2022-09-12T06:46:29.297Z,93.01
2022-09-12T06:48:56.448Z,92.17
2022-09-12T06:51:23.318Z,92.02
2022-09-12T06:53:50.411Z,93.10
2022-09-12T06:56:20.091Z,92.38
2022-09-12T06:58:48.220Z,92.94
2022-09-12T07:01:19.595Z,91.08
2022-09-12T07:03:55.895Z,91.12
2022-09-12T07:06:29.845Z,90.48
2022-09-12T07:08:58.682Z,90.60
2022-09-12T07:11:27.935Z,90.24
2022-09-12T07:13:56.584Z,89.47
2022-09-12T07:16:23.892Z,89.86
2022-09-12T07:18:55.880Z,89.77
2022-09-12T07:21:23.099Z,89.77
2022-09-12T07:23:51.853Z,88.96
2022-09-12T07:26:19.044Z,89.49
2022-09-12T07:28:46.027Z,88.90
2022-09-12T07:31:16.102Z,89.07
2022-09-12T07:33:43.681Z,87.80
2022-09-12T07:36:16.083Z,87.86
2022-09-12T07:38:43.801Z,87.09
2022-09-12T07:41:15.381Z,85.48
2022-09-12T07:43:42.252Z,86.46
2022-09-12T07:46:09.651Z,86.29
2022-09-12T07:48:36.945Z,85.67
2022-09-12T07:51:06.265Z,85.66
2022-09-12T07:53:38.738Z,85.45
2022-09-12T07:56:06.829Z,84.74
2022-09-12T07:58:35.104Z,83.53
2022-09-12T08:01:09.718Z,83.92
2022-09-12T08:03:37.073Z,84.18
2022-09-12T08:06:15.658Z,84.05
2022-09-12T08:08:43.377Z,83.72
2022-09-12T08:11:12.934Z,82.94
2022-09-12T08:13:41.408Z,82.29
2022-09-12T08:16:18.800Z,83.04
2022-09-12T08:18:45.789Z,82.27
2022-09-12T08:21:17.133Z,81.43
2022-09-12T08:23:44.577Z,80.88
2022-09-12T08:26:12.171Z,80.69
2022-09-12T08:28:43.377Z,80.62
2022-09-12T08:31:14.958Z,81.05
2022-09-12T08:33:41.844Z,81.26
2022-09-12T08:36:28.187Z,79.52
2022-09-12T08:39:00.596Z,78.52
2022-09-12T08:41:39.097Z,78.67
2022-09-12T08:44:30.698Z,78.69
2022-09-12T08:47:09.461Z,81.94
2022-09-12T08:49:47.412Z,82.71
2022-09-12T08:52:22.401Z,80.43
2022-09-12T08:54:50.096Z,82.89
2022-09-12T08:57:17.280Z,83.38
2022-09-12T08:59:45.533Z,83.67
2022-09-12T09:02:27.250Z,83.11
2022-09-12T09:05:49.591Z,82.34
2022-09-12T09:08:26.860Z,83.21
2022-09-12T09:11:16.079Z,83.75
2022-09-12T09:14:38.287Z,82.79
2022-09-12T09:17:11.400Z,81.44
2022-09-12T09:19:42.039Z,81.47
2022-09-12T09:22:17.235Z,81.69
2022-09-12T09:24:48.530Z,80.94
2022-09-12T09:27:42.806Z,81.60
2022-09-12T09:30:17.891Z,81.08
2022-09-12T09:32:48.983Z,80.94
2022-09-12T09:35:41.587Z,81.00
2022-09-12T09:38:35.070Z,80.56
2022-09-12T09:41:42.890Z,81.32
2022-09-12T09:44:09.872Z,79.50
2022-09-12T09:46:36.674Z,80.13
2022-09-12T09:49:05.308Z,79.52
2022-09-12T09:51:37.513Z,77.58
2022-09-12T09:54:05.090Z,78.53
2022-09-12T09:56:37.203Z,78.67
2022-09-12T09:59:11.947Z,77.87
2022-09-12T10:02:14.137Z,76.06
2022-09-12T10:04:53.267Z,75.02
2022-09-12T10:07:21.858Z,74.95
2022-09-12T10:10:16.231Z,75.98
2022-09-12T10:12:43.783Z,77.07
2022-09-12T10:15:26.550Z,76.45
2022-09-12T10:17:55.725Z,73.83
2022-09-12T10:20:41.492Z,74.04
2022-09-12T10:23:37.814Z,73.88
2022-09-12T10:26:09.953Z,73.32
2022-09-12T10:28:54.465Z,72.71
2022-09-12T10:31:29.586Z,74.32
2022-09-12T10:33:58.884Z,73.32
2022-09-12T10:36:26.866Z,70.79
2022-09-12T10:39:00.698Z,71.82
2022-09-12T10:41:36.230Z,73.33
2022-09-12T10:44:08.162Z,71.18
2022-09-12T10:46:35.047Z,71.58
2022-09-12T10:49:24.425Z,70.79
2022-09-12T10:51:54.080Z,69.46
2022-09-12T10:54:24.740Z,69.95
2022-09-12T10:57:01.960Z,69.30
2022-09-12T11:00:06.060Z,68.83
2022-09-12T11:02:51.082Z,70.39
2022-09-12T11:05:46.589Z,65.12
2022-09-12T11:08:41.216Z,66.50
2022-09-12T11:11:14.410Z,65.06
2022-09-12T11:13:57.608Z,64.67
2022-09-12T11:16:43.193Z,63.30
2022-09-12T11:19:48.173Z,62.57
2022-09-12T11:22:36.187Z,63.48
2022-09-12T11:25:20.641Z,62.67
2022-09-12T11:28:25.128Z,59.63
2022-09-12T11:31:03.015Z,63.01
2022-09-12T11:33:39.671Z,61.95
2022-09-12T11:36:21.264Z,61.25
2022-09-12T11:38:53.024Z,59.83
2022-09-12T11:41:31.428Z,59.43
2022-09-12T11:44:16.487Z,59.66
2022-09-12T11:46:46.703Z,57.95
2022-09-12T11:49:26.830Z,56.53
2022-09-12T11:52:14.271Z,57.30
2022-09-12T11:54:40.995Z,53.92
2022-09-12T11:57:45.867Z,51.91
2022-09-12T12:00:19.051Z,53.82
2022-09-12T12:03:07.231Z,52.78
2022-09-12T12:05:45.071Z,53.69
2022-09-12T12:08:12.333Z,52.38
2022-09-12T12:10:41.673Z,53.68
2022-09-12T12:13:21.828Z,52.24
2022-09-12T12:15:52.081Z,52.41
2022-09-12T12:18:26.902Z,51.45
2022-09-12T12:20:54.817Z,53.34
2022-09-12T12:23:34.200Z,51.99
2022-09-12T12:26:03.701Z,51.18
2022-09-12T12:28:42.999Z,50.14
2022-09-12T12:31:11.389Z,52.28
2022-09-12T12:33:38.109Z,52.33
2022-09-12T12:36:09.588Z,52.15
2022-09-12T12:38:40.967Z,50.85
2022-09-12T12:41:16.908Z,51.00
2022-09-12T12:43:50.364Z,51.60
2022-09-12T12:46:22.522Z,52.07
2022-09-12T12:49:11.579Z,49.53
2022-09-12T12:51:53.616Z,46.33
2022-09-12T12:54:30.412Z,44.48
2022-09-12T12:57:23.120Z,43.92
2022-09-12T12:59:54.201Z,43.30
2022-09-12T13:02:25.790Z,44.59
2022-09-12T13:04:52.969Z,45.45
2022-09-12T13:07:30.246Z,48.63
2022-09-12T13:09:58.180Z,50.42
2022-09-12T13:12:27.716Z,47.42
2022-09-12T13:14:55.699Z,46.30
2022-09-12T13:17:33.767Z,47.04
2022-09-12T13:20:34.009Z,45.47
2022-09-12T13:23:00.923Z,43.01
2022-09-12T13:25:37.389Z,42.62
2022-09-12T13:28:15.034Z,42.05
2022-09-12T13:31:20.417Z,40.52
2022-09-12T13:33:49.705Z,41.76
2022-09-12T13:36:34.115Z,40.35
2022-09-12T13:39:10.503Z,43.67
2022-09-12T13:41:49.426Z,44.76
2022-09-12T13:44:18.849Z,45.98
2022-09-12T13:46:46.054Z,46.47
2022-09-12T13:49:31.411Z,46.60
2022-09-12T13:52:08.395Z,46.68
2022-09-12T13:54:40.375Z,47.80
2022-09-12T13:57:07.174Z,48.13
2022-09-12T13:59:41.182Z,48.98
2022-09-12T14:02:20.251Z,48.78
2022-09-12T14:05:07.381Z,49.58
2022-09-12T14:07:58.430Z,49.77
2022-09-12T14:10:34.765Z,47.13
2022-09-12T14:13:05.610Z,47.91
2022-09-12T14:15:57.495Z,48.33
2022-09-12T14:18:29.340Z,50.19
2022-09-12T14:20:57.721Z,49.59
2022-09-12T14:23:32.290Z,51.11
2022-09-12T14:26:02.621Z,51.83
2022-09-12T14:28:31.168Z,50.79
2022-09-12T14:30:58.966Z,49.52
2022-09-12T14:33:25.952Z,49.85
2022-09-12T14:36:26.939Z,49.04
2022-09-12T14:38:56.789Z,49.22
2022-09-12T14:41:33.102Z,48.94
2022-09-12T14:44:01.678Z,49.41
2022-09-12T14:46:47.718Z,49.88
2022-09-12T14:49:16.344Z,50.88
2022-09-12T14:51:51.181Z,50.36
2022-09-12T14:54:30.578Z,50.85
2022-09-12T14:57:04.226Z,51.12
2022-09-12T14:59:39.986Z,51.60
2022-09-12T15:02:22.855Z,52.54
2022-09-12T15:04:53.898Z,52.10
2022-09-12T15:07:35.963Z,50.68
2022-09-12T15:10:27.648Z,50.54
2022-09-12T15:13:09.833Z,52.04
2022-09-12T15:15:37.925Z,52.75
2022-09-12T15:18:06.739Z,54.11
2022-09-12T15:20:38.291Z,56.67
2022-09-12T15:23:07.790Z,57.25
2022-09-12T15:25:34.498Z,57.26
2022-09-12T15:28:02.122Z,57.41
2022-09-12T15:30:28.942Z,57.23
2022-09-12T15:32:55.765Z,58.43
2022-09-12T15:35:25.127Z,58.59
2022-09-12T15:37:52.455Z,55.28
2022-09-12T15:40:19.270Z,50.26
2022-09-12T15:42:46.127Z,47.42
2022-09-12T15:45:22.898Z,45.60
2022-09-12T15:47:49.736Z,44.83
2022-09-12T15:50:16.608Z,43.23
2022-09-12T15:52:43.611Z,41.02
2022-09-12T15:55:16.324Z,40.47
2022-09-12T15:57:43.208Z,39.35
2022-09-12T16:00:10.632Z,44.48
2022-09-12T16:02:40.604Z,47.36
2022-09-12T16:05:12.600Z,47.65
2022-09-12T16:07:39.373Z,46.77
2022-09-12T16:10:06.575Z,49.13
2022-09-12T16:12:33.340Z,49.29
2022-09-12T16:15:00.305Z,49.89
2022-09-12T16:17:27.254Z,51.41
2022-09-12T16:19:53.990Z,50.81
2022-09-12T16:22:20.743Z,49.42
2022-09-12T16:24:47.476Z,45.76
2022-09-12T16:27:14.318Z,44.44
2022-09-12T16:29:41.363Z,42.63
2022-09-12T16:32:08.309Z,41.61
2022-09-12T16:34:35.046Z,41.77
2022-09-12T16:37:02.454Z,39.60
2022-09-12T16:39:29.197Z,40.16
2022-09-12T16:41:55.981Z,42.56
2022-09-12T16:44:22.672Z,42.74
2022-09-12T16:46:51.170Z,45.39
2022-09-12T16:49:17.930Z,45.51
2022-09-12T16:51:47.518Z,46.79
2022-09-12T16:54:15.747Z,46.94
2022-09-12T16:56:42.575Z,46.99
2022-09-12T16:59:12.206Z,47.80
2022-09-12T17:01:39.033Z,49.26
2022-09-12T17:04:06.735Z,48.56
2022-09-12T17:06:33.966Z,48.93
2022-09-12T17:09:02.811Z,50.28
2022-09-12T17:11:36.491Z,51.11
2022-09-12T17:14:08.781Z,50.25
2022-09-12T17:16:40.768Z,50.16
2022-09-12T17:19:08.258Z,50.17
2022-09-12T17:21:35.401Z,51.50
2022-09-12T17:24:03.379Z,51.63
2022-09-12T17:26:30.294Z,50.70
2022-09-12T17:28:57.095Z,51.42
2022-09-12T17:31:23.853Z,51.15
2022-09-12T17:33:50.677Z,51.02
2022-09-12T17:36:18.337Z,51.62
2022-09-12T17:38:46.167Z,50.92
2022-09-12T17:41:16.115Z,51.72
2022-09-12T17:43:43.966Z,51.76
2022-09-12T17:46:10.750Z,51.76
2022-09-12T17:48:37.850Z,51.90
2022-09-12T17:51:25.054Z,52.53
2022-09-12T17:53:59.186Z,52.06
2022-09-12T17:56:28.069Z,52.10
2022-09-12T17:58:58.913Z,51.94
2022-09-12T18:01:45.923Z,52.88
2022-09-12T18:04:12.834Z,53.14
2022-09-12T18:06:40.879Z,53.98
2022-09-12T18:09:09.498Z,53.55
2022-09-12T18:11:36.423Z,54.37
2022-09-12T18:14:03.221Z,55.31
2022-09-12T18:16:31.514Z,55.44
2022-09-12T18:19:01.557Z,54.47
2022-09-12T18:21:29.209Z,54.13
2022-09-12T18:23:59.621Z,54.79
2022-09-12T18:26:27.979Z,55.16
2022-09-12T18:28:55.073Z,55.14
2022-09-12T18:31:24.431Z,55.47
2022-09-12T18:33:51.904Z,56.18
2022-09-12T18:36:19.356Z,56.09
2022-09-12T18:38:46.426Z,55.60
2022-09-12T18:41:15.814Z,57.22
2022-09-12T18:43:43.200Z,57.76
2022-09-12T18:46:12.477Z,58.61
2022-09-12T18:48:39.414Z,57.09
2022-09-12T18:51:20.767Z,57.40
2022-09-12T18:53:53.021Z,57.85
2022-09-12T18:56:21.150Z,58.68
2022-09-12T18:58:52.787Z,59.40
2022-09-12T19:01:23.747Z,59.25
2022-09-12T19:03:50.751Z,58.56
2022-09-12T19:06:29.191Z,58.55
2022-09-12T19:08:57.419Z,59.18
2022-09-12T19:11:26.007Z,59.37
2022-09-12T19:13:53.526Z,59.15
2022-09-12T19:16:22.962Z,58.59
2022-09-12T19:18:53.535Z,59.65
2022-09-12T19:21:23.157Z,59.83
2022-09-12T19:23:50.575Z,59.67
2022-09-12T19:26:19.053Z,60.56
2022-09-12T19:28:46.275Z,60.46
2022-09-12T19:31:15.636Z,60.82
2022-09-12T19:33:42.589Z,61.63
2022-09-12T19:36:27.607Z,61.65
2022-09-12T19:39:00.365Z,61.34
2022-09-12T19:41:27.625Z,62.17
2022-09-12T19:43:56.356Z,62.08
2022-09-12T19:46:24.348Z,61.37
2022-09-12T19:48:52.484Z,61.36
2022-09-12T19:51:20.625Z,61.13
2022-09-12T19:53:47.905Z,62.17
2022-09-12T19:56:15.055Z,62.63
2022-09-12T19:58:44.373Z,61.18
2022-09-12T20:01:16.829Z,61.26
2022-09-12T20:03:45.609Z,62.26
2022-09-12T20:06:14.670Z,62.39
2022-09-12T20:08:45.715Z,63.37
2022-09-12T20:11:17.754Z,63.22
2022-09-12T20:13:45.183Z,63.60
2022-09-12T20:16:21.665Z,65.09
2022-09-12T20:18:52.319Z,67.01
2022-09-12T20:21:20.878Z,65.75
2022-09-12T20:23:47.721Z,64.68
2022-09-12T20:26:14.915Z,64.46
2022-09-12T20:28:42.067Z,65.26
2022-09-12T20:31:14.764Z,64.52
2022-09-12T20:33:41.958Z,64.74
2022-09-12T20:36:13.576Z,64.85
2022-09-12T20:38:41.024Z,64.59
2022-09-12T20:41:12.804Z,64.98
2022-09-12T20:43:40.149Z,65.19
2022-09-12T20:46:11.658Z,65.60
2022-09-12T20:48:38.988Z,65.45
2022-09-12T20:51:06.766Z,65.91
2022-09-12T20:53:35.303Z,66.10
2022-09-12T20:56:03.565Z,66.29
2022-09-12T20:58:30.333Z,66.86
2022-09-12T21:00:57.368Z,66.89
2022-09-12T21:03:25.538Z,66.57
2022-09-12T21:05:52.713Z,66.32
2022-09-12T21:08:19.501Z,65.84
2022-09-12T21:10:46.283Z,66.48
2022-09-12T21:13:13.524Z,66.00
2022-09-12T21:15:41.286Z,65.72
2022-09-12T21:18:08.177Z,65.25
2022-09-12T21:20:34.984Z,65.76
2022-09-12T21:23:01.880Z,66.55
2022-09-12T21:25:29.598Z,66.52
2022-09-12T21:27:56.592Z,67.24
2022-09-12T21:30:23.338Z,66.87
2022-09-12T21:32:50.501Z,66.93
2022-09-12T21:35:17.348Z,66.13
2022-09-12T21:37:44.157Z,66.90
2022-09-12T21:40:11.139Z,68.91
2022-09-12T21:42:37.923Z,66.75
2022-09-12T21:45:05.133Z,66.85
2022-09-12T21:47:32.229Z,65.12
2022-09-12T21:49:59.014Z,64.92
2022-09-12T21:52:25.753Z,65.08
2022-09-12T21:54:52.476Z,66.26
2022-09-12T21:57:19.238Z,66.22
2022-09-12T21:59:46.024Z,66.52
2022-09-12T22:02:13.890Z,66.69
2022-09-12T22:04:40.668Z,66.06
2022-09-12T22:07:08.290Z,66.27
2022-09-12T22:09:35.334Z,66.45
2022-09-12T22:12:02.495Z,67.35
2022-09-12T22:14:29.734Z,67.29
2022-09-12T22:16:56.905Z,67.66
2022-09-12T22:19:23.716Z,67.54
2022-09-12T22:22:09.046Z,67.11
2022-09-12T22:24:35.910Z,67.04
2022-09-12T22:27:06.316Z,68.26
2022-09-12T22:29:34.182Z,67.97
2022-09-12T22:32:01.351Z,67.20
2022-09-12T22:34:28.837Z,67.41
2022-09-12T22:36:56.165Z,68.08
2022-09-12T22:39:23.661Z,69.32
2022-09-12T22:41:50.940Z,68.74
2022-09-12T22:44:17.902Z,68.43
2022-09-12T22:46:45.154Z,68.25
2022-09-12T22:49:12.828Z,67.51
2022-09-12T22:51:39.917Z,67.99
2022-09-12T22:54:06.932Z,68.18
2022-09-12T22:56:33.867Z,68.82
2022-09-12T22:59:01.266Z,67.77
2022-09-12T23:01:28.216Z,69.05
2022-09-12T23:03:55.566Z,68.27
2022-09-12T23:06:22.251Z,69.06
2022-09-12T23:08:49.033Z,68.89
2022-09-12T23:11:17.457Z,68.87
2022-09-12T23:13:46.105Z,68.17
2022-09-12T23:16:32.189Z,68.99
2022-09-12T23:18:59.075Z,68.47
2022-09-12T23:33:05.405Z,70.56
2022-09-12T23:35:32.291Z,70.86
2022-09-12T23:37:59.011Z,71.24
2022-09-12T23:40:25.871Z,71.26
2022-09-12T23:42:52.570Z,71.59
2022-09-12T23:45:19.362Z,71.46
2022-09-12T23:47:46.095Z,71.71
2022-09-12T23:50:12.869Z,71.63
2022-09-12T23:52:39.736Z,72.07
2022-09-12T23:55:07.602Z,71.68
2022-09-12T23:57:34.382Z,71.41
